sensor_id;sensor_type;location;lat;lon;timestamp;temperature;humidity
18597;DHT22;9428;50.950;6.912;2023-05-16T00:02:13;12.90;99.90
18597;DHT22;9428;50.950;6.912;2023-05-16T00:05:01;13.00;99.90
18597;DHT22;9428;50.950;6.912;2023-05-16T00:07:49;12.40;99.90
18597;DHT22;9428;50.950;6.912;2023-05-16T00:10:36;12.50;99.90
18597;DHT22;9428;50.950;6.912;2023-05-16T00:13:25;12.50;99.90
18597;DHT22;9428;50.950;6.912;2023-05-16T00:16:12;12.40;99.90
18597;DHT22;9428;50.950;6.912;2023-05-16T00:19:00;12.20;99.90
18597;DHT22;9428;50.950;6.912;2023-05-16T00:21:49;12.30;99.90
18597;DHT22;9428;50.950;6.912;2023-05-16T00:24:36;12.30;99.90
18597;DHT22;9428;50.950;6.912;2023-05-16T00:27:24;12.20;99.90
18597;DHT22;9428;50.950;6.912;2023-05-16T00:30:13;12.10;99.90
18597;DHT22;9428;50.950;6.912;2023-05-16T00:33:00;12.50;99.90
18597;DHT22;9428;50.950;6.912;2023-05-16T00:35:47;12.40;99.90
18597;DHT22;9428;50.950;6.912;2023-05-16T00:38:35;12.40;99.90
18597;DHT22;9428;50.950;6.912;2023-05-16T00:41:22;12.40;99.90
18597;DHT22;9428;50.950;6.912;2023-05-16T00:44:11;12.10;99.90
18597;DHT22;9428;50.950;6.912;2023-05-16T00:46:59;12.30;99.90
18597;DHT22;9428;50.950;6.912;2023-05-16T00:49:47;12.20;99.90
18597;DHT22;9428;50.950;6.912;2023-05-16T00:52:35;12.00;99.90
18597;DHT22;9428;50.950;6.912;2023-05-16T00:55:22;12.30;99.90
18597;DHT22;9428;50.950;6.912;2023-05-16T00:58:10;12.10;99.90
18597;DHT22;9428;50.950;6.912;2023-05-16T01:00:58;12.10;99.90
18597;DHT22;9428;50.950;6.912;2023-05-16T01:03:48;12.00;99.90
18597;DHT22;9428;50.950;6.912;2023-05-16T01:06:36;12.00;99.90
18597;DHT22;9428;50.950;6.912;2023-05-16T01:09:23;12.60;99.90
18597;DHT22;9428;50.950;6.912;2023-05-16T01:12:13;12.40;99.90
18597;DHT22;9428;50.950;6.912;2023-05-16T01:15:06;11.90;99.90
18597;DHT22;9428;50.950;6.912;2023-05-16T01:17:58;11.90;99.90
18597;DHT22;9428;50.950;6.912;2023-05-16T01:20:50;12.00;99.90
18597;DHT22;9428;50.950;6.912;2023-05-16T01:23:50;11.90;99.90
18597;DHT22;9428;50.950;6.912;2023-05-16T01:26:39;11.80;99.90
18597;DHT22;9428;50.950;6.912;2023-05-16T01:29:27;12.30;99.90
18597;DHT22;9428;50.950;6.912;2023-05-16T01:32:14;11.90;99.90
18597;DHT22;9428;50.950;6.912;2023-05-16T01:35:02;11.60;99.90
18597;DHT22;9428;50.950;6.912;2023-05-16T01:37:56;11.50;99.90
18597;DHT22;9428;50.950;6.912;2023-05-16T01:40:48;11.60;99.90
18597;DHT22;9428;50.950;6.912;2023-05-16T01:43:42;11.40;99.90
18597;DHT22;9428;50.950;6.912;2023-05-16T01:46:35;11.90;99.90
18597;DHT22;9428;50.950;6.912;2023-05-16T01:49:26;11.20;99.90
18597;DHT22;9428;50.950;6.912;2023-05-16T01:52:21;11.70;99.90
18597;DHT22;9428;50.950;6.912;2023-05-16T01:55:15;11.60;99.90
18597;DHT22;9428;50.950;6.912;2023-05-16T01:58:06;11.30;99.90
18597;DHT22;9428;50.950;6.912;2023-05-16T02:00:59;11.40;99.90
18597;DHT22;9428;50.950;6.912;2023-05-16T02:03:47;11.40;99.90
18597;DHT22;9428;50.950;6.912;2023-05-16T02:06:35;11.40;99.90
18597;DHT22;9428;50.950;6.912;2023-05-16T02:09:23;11.50;99.90
18597;DHT22;9428;50.950;6.912;2023-05-16T02:12:10;11.40;99.90
18597;DHT22;9428;50.950;6.912;2023-05-16T02:14:58;11.80;99.90
18597;DHT22;9428;50.950;6.912;2023-05-16T02:17:46;11.20;99.90
18597;DHT22;9428;50.950;6.912;2023-05-16T02:20:34;11.00;99.90
18597;DHT22;9428;50.950;6.912;2023-05-16T02:23:21;11.00;99.90
18597;DHT22;9428;50.950;6.912;2023-05-16T02:26:08;11.00;99.90
18597;DHT22;9428;50.950;6.912;2023-05-16T02:28:55;10.80;99.90
18597;DHT22;9428;50.950;6.912;2023-05-16T02:31:43;11.00;99.90
18597;DHT22;9428;50.950;6.912;2023-05-16T02:34:31;10.60;99.90
18597;DHT22;9428;50.950;6.912;2023-05-16T02:37:19;10.60;99.90
18597;DHT22;9428;50.950;6.912;2023-05-16T02:40:07;10.70;99.90
18597;DHT22;9428;50.950;6.912;2023-05-16T02:42:55;10.50;99.90
18597;DHT22;9428;50.950;6.912;2023-05-16T02:45:42;10.60;99.90
18597;DHT22;9428;50.950;6.912;2023-05-16T02:48:29;10.80;99.90
18597;DHT22;9428;50.950;6.912;2023-05-16T02:51:19;10.50;99.90
18597;DHT22;9428;50.950;6.912;2023-05-16T02:54:06;10.70;99.90
18597;DHT22;9428;50.950;6.912;2023-05-16T02:56:54;10.50;99.90
18597;DHT22;9428;50.950;6.912;2023-05-16T02:59:43;10.60;99.90
18597;DHT22;9428;50.950;6.912;2023-05-16T03:02:30;10.40;99.90
18597;DHT22;9428;50.950;6.912;2023-05-16T03:05:18;10.60;99.90
18597;DHT22;9428;50.950;6.912;2023-05-16T03:08:06;10.50;99.90
18597;DHT22;9428;50.950;6.912;2023-05-16T03:10:53;10.50;99.90
18597;DHT22;9428;50.950;6.912;2023-05-16T03:13:41;10.60;99.90
18597;DHT22;9428;50.950;6.912;2023-05-16T03:16:28;10.50;99.90
18597;DHT22;9428;50.950;6.912;2023-05-16T03:19:15;10.20;99.90
18597;DHT22;9428;50.950;6.912;2023-05-16T03:22:03;10.70;99.90
18597;DHT22;9428;50.950;6.912;2023-05-16T03:24:51;10.70;99.90
18597;DHT22;9428;50.950;6.912;2023-05-16T03:27:39;11.10;99.90
18597;DHT22;9428;50.950;6.912;2023-05-16T03:30:26;10.60;99.90
18597;DHT22;9428;50.950;6.912;2023-05-16T03:33:13;11.30;99.90
18597;DHT22;9428;50.950;6.912;2023-05-16T03:36:01;11.30;99.90
18597;DHT22;9428;50.950;6.912;2023-05-16T03:38:48;10.70;99.90
18597;DHT22;9428;50.950;6.912;2023-05-16T03:41:36;11.40;99.90
18597;DHT22;9428;50.950;6.912;2023-05-16T03:44:24;10.70;99.90
18597;DHT22;9428;50.950;6.912;2023-05-16T03:47:11;10.70;99.90
18597;DHT22;9428;50.950;6.912;2023-05-16T03:49:58;10.70;99.90
18597;DHT22;9428;50.950;6.912;2023-05-16T03:52:45;10.80;99.90
18597;DHT22;9428;50.950;6.912;2023-05-16T03:55:32;10.50;99.90
18597;DHT22;9428;50.950;6.912;2023-05-16T03:58:21;10.60;99.90
18597;DHT22;9428;50.950;6.912;2023-05-16T04:01:08;10.50;99.90
18597;DHT22;9428;50.950;6.912;2023-05-16T04:03:56;10.60;99.90
18597;DHT22;9428;50.950;6.912;2023-05-16T04:06:43;11.10;99.90
18597;DHT22;9428;50.950;6.912;2023-05-16T04:09:30;10.50;99.90
18597;DHT22;9428;50.950;6.912;2023-05-16T04:12:17;10.80;99.90
18597;DHT22;9428;50.950;6.912;2023-05-16T04:15:07;10.50;99.90
18597;DHT22;9428;50.950;6.912;2023-05-16T04:17:54;10.60;99.90
18597;DHT22;9428;50.950;6.912;2023-05-16T04:20:41;11.30;99.90
18597;DHT22;9428;50.950;6.912;2023-05-16T04:23:29;10.70;99.90
18597;DHT22;9428;50.950;6.912;2023-05-16T04:26:16;11.10;99.90
18597;DHT22;9428;50.950;6.912;2023-05-16T04:29:03;10.40;99.90
18597;DHT22;9428;50.950;6.912;2023-05-16T04:31:52;10.60;99.90
18597;DHT22;9428;50.950;6.912;2023-05-16T04:34:39;10.60;99.90
18597;DHT22;9428;50.950;6.912;2023-05-16T04:37:29;10.40;99.90
18597;DHT22;9428;50.950;6.912;2023-05-16T04:40:16;10.70;99.90
18597;DHT22;9428;50.950;6.912;2023-05-16T04:43:03;10.30;99.90
18597;DHT22;9428;50.950;6.912;2023-05-16T04:45:51;10.30;99.90
18597;DHT22;9428;50.950;6.912;2023-05-16T04:48:40;10.50;99.90
18597;DHT22;9428;50.950;6.912;2023-05-16T04:51:28;10.20;99.90
18597;DHT22;9428;50.950;6.912;2023-05-16T04:54:16;10.10;99.90
18597;DHT22;9428;50.950;6.912;2023-05-16T04:57:04;9.90;99.90
18597;DHT22;9428;50.950;6.912;2023-05-16T04:59:51;10.10;99.90
18597;DHT22;9428;50.950;6.912;2023-05-16T05:02:39;10.20;99.90
18597;DHT22;9428;50.950;6.912;2023-05-16T05:05:27;9.80;99.90
18597;DHT22;9428;50.950;6.912;2023-05-16T05:08:15;9.90;99.90
18597;DHT22;9428;50.950;6.912;2023-05-16T05:11:02;9.90;99.90
18597;DHT22;9428;50.950;6.912;2023-05-16T05:13:49;9.70;99.90
18597;DHT22;9428;50.950;6.912;2023-05-16T05:16:36;10.00;99.90
18597;DHT22;9428;50.950;6.912;2023-05-16T05:19:24;10.00;99.90
18597;DHT22;9428;50.950;6.912;2023-05-16T05:22:12;10.10;99.90
18597;DHT22;9428;50.950;6.912;2023-05-16T05:25:00;10.30;99.90
18597;DHT22;9428;50.950;6.912;2023-05-16T05:27:47;11.40;99.90
18597;DHT22;9428;50.950;6.912;2023-05-16T05:30:34;10.40;99.90
18597;DHT22;9428;50.950;6.912;2023-05-16T05:33:26;10.10;99.90
18597;DHT22;9428;50.950;6.912;2023-05-16T05:36:14;10.30;99.90
18597;DHT22;9428;50.950;6.912;2023-05-16T05:39:03;10.20;99.90
18597;DHT22;9428;50.950;6.912;2023-05-16T05:41:51;10.00;99.90
18597;DHT22;9428;50.950;6.912;2023-05-16T05:44:38;10.00;99.90
18597;DHT22;9428;50.950;6.912;2023-05-16T05:47:25;11.00;99.90
18597;DHT22;9428;50.950;6.912;2023-05-16T05:50:12;10.20;99.90
18597;DHT22;9428;50.950;6.912;2023-05-16T05:53:00;10.10;99.90
18597;DHT22;9428;50.950;6.912;2023-05-16T05:55:49;10.10;99.90
18597;DHT22;9428;50.950;6.912;2023-05-16T05:58:37;10.00;99.90
18597;DHT22;9428;50.950;6.912;2023-05-16T06:01:26;10.10;99.90
18597;DHT22;9428;50.950;6.912;2023-05-16T06:04:14;10.20;99.90
18597;DHT22;9428;50.950;6.912;2023-05-16T06:07:01;10.40;99.90
18597;DHT22;9428;50.950;6.912;2023-05-16T06:09:48;10.30;99.90
18597;DHT22;9428;50.950;6.912;2023-05-16T06:12:37;10.40;99.90
18597;DHT22;9428;50.950;6.912;2023-05-16T06:15:24;10.30;99.90
18597;DHT22;9428;50.950;6.912;2023-05-16T06:18:12;10.20;99.90
18597;DHT22;9428;50.950;6.912;2023-05-16T06:20:59;10.30;99.90
18597;DHT22;9428;50.950;6.912;2023-05-16T06:23:46;10.60;99.90
18597;DHT22;9428;50.950;6.912;2023-05-16T06:26:34;11.20;99.90
18597;DHT22;9428;50.950;6.912;2023-05-16T06:29:22;10.70;99.90
18597;DHT22;9428;50.950;6.912;2023-05-16T06:32:10;10.60;99.90
18597;DHT22;9428;50.950;6.912;2023-05-16T06:34:57;10.70;99.90
18597;DHT22;9428;50.950;6.912;2023-05-16T06:37:44;10.60;99.90
18597;DHT22;9428;50.950;6.912;2023-05-16T06:40:31;10.90;99.90
18597;DHT22;9428;50.950;6.912;2023-05-16T06:43:18;11.20;99.90
18597;DHT22;9428;50.950;6.912;2023-05-16T06:46:07;11.50;99.90
18597;DHT22;9428;50.950;6.912;2023-05-16T06:48:55;11.30;99.90
18597;DHT22;9428;50.950;6.912;2023-05-16T06:51:42;11.70;99.90
18597;DHT22;9428;50.950;6.912;2023-05-16T06:54:29;11.50;99.90
18597;DHT22;9428;50.950;6.912;2023-05-16T06:57:17;11.30;99.90
18597;DHT22;9428;50.950;6.912;2023-05-16T07:00:05;11.60;99.90
18597;DHT22;9428;50.950;6.912;2023-05-16T07:02:54;11.70;99.90
18597;DHT22;9428;50.950;6.912;2023-05-16T07:05:41;11.60;99.90
18597;DHT22;9428;50.950;6.912;2023-05-16T07:08:29;11.50;99.90
18597;DHT22;9428;50.950;6.912;2023-05-16T07:11:16;11.50;99.90
18597;DHT22;9428;50.950;6.912;2023-05-16T07:14:03;11.60;99.90
18597;DHT22;9428;50.950;6.912;2023-05-16T07:16:50;12.00;99.90
18597;DHT22;9428;50.950;6.912;2023-05-16T07:19:39;11.90;99.90
18597;DHT22;9428;50.950;6.912;2023-05-16T07:22:26;11.80;99.90
18597;DHT22;9428;50.950;6.912;2023-05-16T07:25:13;11.90;99.90
18597;DHT22;9428;50.950;6.912;2023-05-16T07:28:01;11.70;99.90
18597;DHT22;9428;50.950;6.912;2023-05-16T07:30:48;11.80;99.90
18597;DHT22;9428;50.950;6.912;2023-05-16T07:33:35;12.20;99.90
18597;DHT22;9428;50.950;6.912;2023-05-16T07:36:24;11.70;99.90
18597;DHT22;9428;50.950;6.912;2023-05-16T07:39:11;12.60;99.90
18597;DHT22;9428;50.950;6.912;2023-05-16T07:41:58;12.10;99.90
18597;DHT22;9428;50.950;6.912;2023-05-16T07:44:46;12.00;99.90
18597;DHT22;9428;50.950;6.912;2023-05-16T07:47:33;12.20;99.90
18597;DHT22;9428;50.950;6.912;2023-05-16T07:50:21;12.10;99.90
18597;DHT22;9428;50.950;6.912;2023-05-16T07:53:09;12.20;99.90
18597;DHT22;9428;50.950;6.912;2023-05-16T07:55:57;11.80;99.90
18597;DHT22;9428;50.950;6.912;2023-05-16T07:58:44;11.80;99.90
18597;DHT22;9428;50.950;6.912;2023-05-16T08:01:33;11.80;99.90
18597;DHT22;9428;50.950;6.912;2023-05-16T08:04:20;11.90;99.90
18597;DHT22;9428;50.950;6.912;2023-05-16T08:07:08;11.80;99.90
18597;DHT22;9428;50.950;6.912;2023-05-16T08:09:56;11.90;99.90
18597;DHT22;9428;50.950;6.912;2023-05-16T08:12:44;11.70;99.90
18597;DHT22;9428;50.950;6.912;2023-05-16T08:15:31;12.00;99.90
18597;DHT22;9428;50.950;6.912;2023-05-16T08:18:19;11.90;99.90
18597;DHT22;9428;50.950;6.912;2023-05-16T08:21:06;11.70;99.90
18597;DHT22;9428;50.950;6.912;2023-05-16T08:23:53;12.00;99.90
18597;DHT22;9428;50.950;6.912;2023-05-16T08:26:42;12.10;99.90
18597;DHT22;9428;50.950;6.912;2023-05-16T08:29:30;12.60;99.90
18597;DHT22;9428;50.950;6.912;2023-05-16T08:32:17;12.10;99.90
18597;DHT22;9428;50.950;6.912;2023-05-16T08:35:05;12.30;99.90
18597;DHT22;9428;50.950;6.912;2023-05-16T08:37:52;12.30;99.90
18597;DHT22;9428;50.950;6.912;2023-05-16T08:40:41;12.60;99.90
18597;DHT22;9428;50.950;6.912;2023-05-16T08:43:30;12.40;99.90
18597;DHT22;9428;50.950;6.912;2023-05-16T08:46:21;12.20;99.90
18597;DHT22;9428;50.950;6.912;2023-05-16T08:49:09;12.50;99.90
18597;DHT22;9428;50.950;6.912;2023-05-16T08:51:59;12.70;99.90
18597;DHT22;9428;50.950;6.912;2023-05-16T08:54:49;12.60;99.90
18597;DHT22;9428;50.950;6.912;2023-05-16T08:57:37;12.40;99.90
18597;DHT22;9428;50.950;6.912;2023-05-16T09:00:26;12.40;99.90
18597;DHT22;9428;50.950;6.912;2023-05-16T09:03:13;12.70;99.90
18597;DHT22;9428;50.950;6.912;2023-05-16T09:06:01;12.80;99.90
18597;DHT22;9428;50.950;6.912;2023-05-16T09:08:48;12.60;99.90
18597;DHT22;9428;50.950;6.912;2023-05-16T09:11:35;12.80;99.90
18597;DHT22;9428;50.950;6.912;2023-05-16T09:14:22;13.00;99.90
18597;DHT22;9428;50.950;6.912;2023-05-16T09:17:12;13.10;99.90
18597;DHT22;9428;50.950;6.912;2023-05-16T09:20:07;13.00;99.90
18597;DHT22;9428;50.950;6.912;2023-05-16T09:22:56;12.70;99.90
18597;DHT22;9428;50.950;6.912;2023-05-16T09:25:43;12.60;99.90
18597;DHT22;9428;50.950;6.912;2023-05-16T09:28:30;12.70;99.90
18597;DHT22;9428;50.950;6.912;2023-05-16T09:31:21;12.70;99.90
18597;DHT22;9428;50.950;6.912;2023-05-16T09:34:11;12.80;99.90
18597;DHT22;9428;50.950;6.912;2023-05-16T09:36:58;12.90;99.90
18597;DHT22;9428;50.950;6.912;2023-05-16T09:39:47;13.10;99.90
18597;DHT22;9428;50.950;6.912;2023-05-16T09:42:35;13.30;99.90
18597;DHT22;9428;50.950;6.912;2023-05-16T09:45:22;13.40;99.90
18597;DHT22;9428;50.950;6.912;2023-05-16T09:48:10;13.50;99.90
18597;DHT22;9428;50.950;6.912;2023-05-16T09:51:00;13.00;99.90
18597;DHT22;9428;50.950;6.912;2023-05-16T09:53:51;13.20;99.90
18597;DHT22;9428;50.950;6.912;2023-05-16T09:56:47;13.30;99.90
18597;DHT22;9428;50.950;6.912;2023-05-16T09:59:36;13.30;99.90
18597;DHT22;9428;50.950;6.912;2023-05-16T10:02:23;12.80;99.90
18597;DHT22;9428;50.950;6.912;2023-05-16T10:05:11;13.70;99.90
18597;DHT22;9428;50.950;6.912;2023-05-16T10:08:01;13.00;99.90
18597;DHT22;9428;50.950;6.912;2023-05-16T10:10:50;13.40;99.90
18597;DHT22;9428;50.950;6.912;2023-05-16T10:13:38;13.30;99.90
18597;DHT22;9428;50.950;6.912;2023-05-16T10:16:26;12.80;99.90
18597;DHT22;9428;50.950;6.912;2023-05-16T10:19:14;12.90;99.90
18597;DHT22;9428;50.950;6.912;2023-05-16T10:22:04;13.20;99.90
18597;DHT22;9428;50.950;6.912;2023-05-16T10:24:57;13.30;99.90
18597;DHT22;9428;50.950;6.912;2023-05-16T10:27:46;13.90;99.90
18597;DHT22;9428;50.950;6.912;2023-05-16T10:30:34;13.40;99.90
18597;DHT22;9428;50.950;6.912;2023-05-16T10:33:22;13.70;99.90
18597;DHT22;9428;50.950;6.912;2023-05-16T10:36:10;13.30;99.90
18597;DHT22;9428;50.950;6.912;2023-05-16T10:38:57;13.50;99.90
18597;DHT22;9428;50.950;6.912;2023-05-16T10:41:46;13.50;99.90
18597;DHT22;9428;50.950;6.912;2023-05-16T10:44:37;14.40;99.90
18597;DHT22;9428;50.950;6.912;2023-05-16T10:47:25;13.50;99.90
18597;DHT22;9428;50.950;6.912;2023-05-16T10:50:12;14.00;99.90
18597;DHT22;9428;50.950;6.912;2023-05-16T10:53:18;14.20;99.90
18597;DHT22;9428;50.950;6.912;2023-05-16T10:56:07;13.70;99.90
18597;DHT22;9428;50.950;6.912;2023-05-16T10:58:56;13.70;99.90
18597;DHT22;9428;50.950;6.912;2023-05-16T11:01:43;13.80;99.90
18597;DHT22;9428;50.950;6.912;2023-05-16T11:04:44;13.80;99.90
18597;DHT22;9428;50.950;6.912;2023-05-16T11:07:33;13.60;99.90
18597;DHT22;9428;50.950;6.912;2023-05-16T11:10:20;13.50;99.90
18597;DHT22;9428;50.950;6.912;2023-05-16T11:13:08;13.60;99.90
18597;DHT22;9428;50.950;6.912;2023-05-16T11:16:26;13.60;99.90
18597;DHT22;9428;50.950;6.912;2023-05-16T11:19:28;13.70;99.90
18597;DHT22;9428;50.950;6.912;2023-05-16T11:22:25;13.80;99.90
18597;DHT22;9428;50.950;6.912;2023-05-16T11:25:13;14.00;99.90
18597;DHT22;9428;50.950;6.912;2023-05-16T11:28:00;14.10;99.90
18597;DHT22;9428;50.950;6.912;2023-05-16T11:30:48;14.20;99.90
18597;DHT22;9428;50.950;6.912;2023-05-16T11:33:38;15.10;99.90
18597;DHT22;9428;50.950;6.912;2023-05-16T11:36:28;14.60;99.90
18597;DHT22;9428;50.950;6.912;2023-05-16T11:39:17;14.50;99.90
18597;DHT22;9428;50.950;6.912;2023-05-16T11:42:05;14.50;99.90
18597;DHT22;9428;50.950;6.912;2023-05-16T11:45:03;14.40;99.90
18597;DHT22;9428;50.950;6.912;2023-05-16T11:47:51;14.60;99.90
18597;DHT22;9428;50.950;6.912;2023-05-16T11:50:39;14.60;99.90
18597;DHT22;9428;50.950;6.912;2023-05-16T11:53:27;14.30;99.90
18597;DHT22;9428;50.950;6.912;2023-05-16T11:56:14;15.10;99.90
18597;DHT22;9428;50.950;6.912;2023-05-16T11:59:02;14.30;99.90
18597;DHT22;9428;50.950;6.912;2023-05-16T12:01:49;14.40;99.90
18597;DHT22;9428;50.950;6.912;2023-05-16T12:04:36;14.30;99.90
18597;DHT22;9428;50.950;6.912;2023-05-16T12:07:28;14.30;99.90
18597;DHT22;9428;50.950;6.912;2023-05-16T12:10:16;14.50;99.90
18597;DHT22;9428;50.950;6.912;2023-05-16T12:13:03;14.80;99.90
18597;DHT22;9428;50.950;6.912;2023-05-16T12:15:51;14.10;99.90
18597;DHT22;9428;50.950;6.912;2023-05-16T12:18:38;14.00;99.90
18597;DHT22;9428;50.950;6.912;2023-05-16T12:21:25;14.00;99.90
18597;DHT22;9428;50.950;6.912;2023-05-16T12:24:14;13.70;99.90
18597;DHT22;9428;50.950;6.912;2023-05-16T12:27:02;13.70;99.90
18597;DHT22;9428;50.950;6.912;2023-05-16T12:29:50;13.80;99.90
18597;DHT22;9428;50.950;6.912;2023-05-16T12:32:37;14.00;99.90
18597;DHT22;9428;50.950;6.912;2023-05-16T12:35:25;14.10;99.90
18597;DHT22;9428;50.950;6.912;2023-05-16T12:38:14;14.50;99.90
18597;DHT22;9428;50.950;6.912;2023-05-16T12:41:03;14.50;99.90
18597;DHT22;9428;50.950;6.912;2023-05-16T12:44:05;14.70;99.90
18597;DHT22;9428;50.950;6.912;2023-05-16T12:46:52;14.70;99.90
18597;DHT22;9428;50.950;6.912;2023-05-16T12:49:43;14.70;99.90
18597;DHT22;9428;50.950;6.912;2023-05-16T12:52:31;14.50;99.90
18597;DHT22;9428;50.950;6.912;2023-05-16T12:55:19;14.40;99.90
18597;DHT22;9428;50.950;6.912;2023-05-16T12:58:08;14.20;99.90
18597;DHT22;9428;50.950;6.912;2023-05-16T13:00:55;14.20;99.90
18597;DHT22;9428;50.950;6.912;2023-05-16T13:03:43;14.20;99.90
18597;DHT22;9428;50.950;6.912;2023-05-16T13:06:30;15.00;99.90
18597;DHT22;9428;50.950;6.912;2023-05-16T13:09:17;14.70;99.90
18597;DHT22;9428;50.950;6.912;2023-05-16T13:12:05;14.50;99.90
18597;DHT22;9428;50.950;6.912;2023-05-16T13:14:53;14.50;99.90
18597;DHT22;9428;50.950;6.912;2023-05-16T13:17:42;14.50;99.90
18597;DHT22;9428;50.950;6.912;2023-05-16T13:20:29;14.90;99.90
18597;DHT22;9428;50.950;6.912;2023-05-16T13:23:17;14.30;99.90
18597;DHT22;9428;50.950;6.912;2023-05-16T13:26:04;14.30;99.90
18597;DHT22;9428;50.950;6.912;2023-05-16T13:28:52;14.30;99.90
18597;DHT22;9428;50.950;6.912;2023-05-16T13:31:41;14.50;99.90
18597;DHT22;9428;50.950;6.912;2023-05-16T13:34:28;14.60;99.90
18597;DHT22;9428;50.950;6.912;2023-05-16T13:37:17;14.60;99.90
18597;DHT22;9428;50.950;6.912;2023-05-16T13:40:05;14.60;99.90
18597;DHT22;9428;50.950;6.912;2023-05-16T13:42:55;14.70;99.90
18597;DHT22;9428;50.950;6.912;2023-05-16T13:45:42;14.50;99.90
18597;DHT22;9428;50.950;6.912;2023-05-16T13:48:31;15.10;99.90
18597;DHT22;9428;50.950;6.912;2023-05-16T13:51:18;14.60;99.90
18597;DHT22;9428;50.950;6.912;2023-05-16T13:54:06;14.70;99.90
18597;DHT22;9428;50.950;6.912;2023-05-16T13:56:54;15.20;99.90
18597;DHT22;9428;50.950;6.912;2023-05-16T13:59:42;15.10;99.90
18597;DHT22;9428;50.950;6.912;2023-05-16T14:02:29;15.70;99.90
18597;DHT22;9428;50.950;6.912;2023-05-16T14:05:18;15.30;99.90
18597;DHT22;9428;50.950;6.912;2023-05-16T14:08:05;15.40;99.90
18597;DHT22;9428;50.950;6.912;2023-05-16T14:10:53;15.30;99.90
18597;DHT22;9428;50.950;6.912;2023-05-16T14:13:40;15.50;98.60
18597;DHT22;9428;50.950;6.912;2023-05-16T14:16:27;15.20;99.80
18597;DHT22;9428;50.950;6.912;2023-05-16T14:19:15;15.20;99.90
18597;DHT22;9428;50.950;6.912;2023-05-16T14:22:04;15.00;98.20
18597;DHT22;9428;50.950;6.912;2023-05-16T14:24:52;14.90;99.10
18597;DHT22;9428;50.950;6.912;2023-05-16T14:27:39;15.50;96.10
18597;DHT22;9428;50.950;6.912;2023-05-16T14:30:26;15.20;96.40
18597;DHT22;9428;50.950;6.912;2023-05-16T14:33:13;15.80;97.00
18597;DHT22;9428;50.950;6.912;2023-05-16T14:36:00;15.40;96.50
18597;DHT22;9428;50.950;6.912;2023-05-16T14:38:49;15.40;96.30
18597;DHT22;9428;50.950;6.912;2023-05-16T14:41:37;15.50;99.50
18597;DHT22;9428;50.950;6.912;2023-05-16T14:44:24;15.40;98.90
18597;DHT22;9428;50.950;6.912;2023-05-16T14:47:11;15.30;99.30
18597;DHT22;9428;50.950;6.912;2023-05-16T14:49:58;15.50;99.90
18597;DHT22;9428;50.950;6.912;2023-05-16T14:52:46;15.60;98.60
18597;DHT22;9428;50.950;6.912;2023-05-16T14:55:35;15.50;99.20
18597;DHT22;9428;50.950;6.912;2023-05-16T14:58:23;15.30;99.90
18597;DHT22;9428;50.950;6.912;2023-05-16T15:01:10;15.20;99.90
18597;DHT22;9428;50.950;6.912;2023-05-16T15:04:01;15.10;99.80
18597;DHT22;9428;50.950;6.912;2023-05-16T15:06:48;15.50;99.90
18597;DHT22;9428;50.950;6.912;2023-05-16T15:09:35;15.10;99.90
18597;DHT22;9428;50.950;6.912;2023-05-16T15:12:24;15.30;99.90
18597;DHT22;9428;50.950;6.912;2023-05-16T15:15:11;15.00;99.90
18597;DHT22;9428;50.950;6.912;2023-05-16T15:17:58;15.20;99.90
18597;DHT22;9428;50.950;6.912;2023-05-16T15:20:46;15.20;99.90
18597;DHT22;9428;50.950;6.912;2023-05-16T15:23:33;15.10;99.90
18597;DHT22;9428;50.950;6.912;2023-05-16T15:26:21;15.40;99.90
18597;DHT22;9428;50.950;6.912;2023-05-16T15:29:09;14.90;99.90
18597;DHT22;9428;50.950;6.912;2023-05-16T15:31:57;15.00;99.90
18597;DHT22;9428;50.950;6.912;2023-05-16T15:34:44;14.90;99.90
18597;DHT22;9428;50.950;6.912;2023-05-16T15:37:31;15.00;99.90
18597;DHT22;9428;50.950;6.912;2023-05-16T15:40:20;14.90;99.90
18597;DHT22;9428;50.950;6.912;2023-05-16T15:43:09;14.80;99.90
18597;DHT22;9428;50.950;6.912;2023-05-16T15:45:57;14.90;99.90
18597;DHT22;9428;50.950;6.912;2023-05-16T15:48:44;15.50;99.90
18597;DHT22;9428;50.950;6.912;2023-05-16T15:51:32;15.40;99.90
18597;DHT22;9428;50.950;6.912;2023-05-16T15:54:19;14.80;99.90
18597;DHT22;9428;50.950;6.912;2023-05-16T15:57:06;14.70;99.90
18597;DHT22;9428;50.950;6.912;2023-05-16T15:59:53;15.00;99.90
18597;DHT22;9428;50.950;6.912;2023-05-16T16:02:42;14.70;99.90
18597;DHT22;9428;50.950;6.912;2023-05-16T16:05:30;14.70;99.90
18597;DHT22;9428;50.950;6.912;2023-05-16T16:08:17;14.70;99.90
18597;DHT22;9428;50.950;6.912;2023-05-16T16:11:05;14.80;99.90
18597;DHT22;9428;50.950;6.912;2023-05-16T16:13:52;14.90;99.90
18597;DHT22;9428;50.950;6.912;2023-05-16T16:16:39;14.70;99.90
18597;DHT22;9428;50.950;6.912;2023-05-16T16:19:28;14.70;99.90
18597;DHT22;9428;50.950;6.912;2023-05-16T16:22:15;14.70;99.90
18597;DHT22;9428;50.950;6.912;2023-05-16T16:25:03;14.80;99.90
18597;DHT22;9428;50.950;6.912;2023-05-16T16:27:50;14.90;99.90
18597;DHT22;9428;50.950;6.912;2023-05-16T16:30:38;14.90;99.90
18597;DHT22;9428;50.950;6.912;2023-05-16T16:33:25;14.80;99.90
18597;DHT22;9428;50.950;6.912;2023-05-16T16:36:14;15.50;99.90
18597;DHT22;9428;50.950;6.912;2023-05-16T16:39:01;15.20;99.90
18597;DHT22;9428;50.950;6.912;2023-05-16T16:41:50;14.60;99.90
18597;DHT22;9428;50.950;6.912;2023-05-16T16:44:37;15.20;99.90
18597;DHT22;9428;50.950;6.912;2023-05-16T16:47:25;14.30;99.90
18597;DHT22;9428;50.950;6.912;2023-05-16T16:50:13;14.30;99.90
18597;DHT22;9428;50.950;6.912;2023-05-16T16:53:01;14.20;99.90
18597;DHT22;9428;50.950;6.912;2023-05-16T16:55:49;14.20;99.90
18597;DHT22;9428;50.950;6.912;2023-05-16T16:58:36;14.40;99.90
18597;DHT22;9428;50.950;6.912;2023-05-16T17:01:23;14.10;99.90
18597;DHT22;9428;50.950;6.912;2023-05-16T17:04:12;14.20;99.90
18597;DHT22;9428;50.950;6.912;2023-05-16T17:06:59;14.20;99.90
18597;DHT22;9428;50.950;6.912;2023-05-16T17:09:47;14.50;99.90
18597;DHT22;9428;50.950;6.912;2023-05-16T17:12:35;13.90;99.90
18597;DHT22;9428;50.950;6.912;2023-05-16T17:15:29;13.90;99.90
18597;DHT22;9428;50.950;6.912;2023-05-16T17:18:16;14.00;99.90
18597;DHT22;9428;50.950;6.912;2023-05-16T17:21:06;13.80;99.90
18597;DHT22;9428;50.950;6.912;2023-05-16T17:23:57;13.70;99.90
18597;DHT22;9428;50.950;6.912;2023-05-16T17:26:48;13.80;99.90
18597;DHT22;9428;50.950;6.912;2023-05-16T17:29:35;13.70;99.90
18597;DHT22;9428;50.950;6.912;2023-05-16T17:32:22;13.90;99.90
18597;DHT22;9428;50.950;6.912;2023-05-16T17:35:10;13.90;99.90
18597;DHT22;9428;50.950;6.912;2023-05-16T17:37:57;13.70;99.90
18597;DHT22;9428;50.950;6.912;2023-05-16T17:40:45;13.00;99.90
18597;DHT22;9428;50.950;6.912;2023-05-16T17:43:36;13.70;99.90
18597;DHT22;9428;50.950;6.912;2023-05-16T17:46:23;13.40;99.90
18597;DHT22;9428;50.950;6.912;2023-05-16T17:49:11;14.00;99.90
18597;DHT22;9428;50.950;6.912;2023-05-16T17:51:58;13.90;99.90
18597;DHT22;9428;50.950;6.912;2023-05-16T17:54:45;13.80;99.90
18597;DHT22;9428;50.950;6.912;2023-05-16T17:57:32;13.80;99.90
18597;DHT22;9428;50.950;6.912;2023-05-16T18:00:24;13.60;99.90
18597;DHT22;9428;50.950;6.912;2023-05-16T18:03:11;13.60;99.90